Airfield :
LOGIN :

Register | Disclaimer

   EN    FR    IT 

 










Legend :    VFR   Marginal VFR   IFR   Intensive IFR   Very Intensive IFR
Visi :
Ceiling :
>= 8 km
>= 3000ft
5 to 8 km
1000 to 3000 ft
1500m to 5 km
500 to 1000 ft
800 to 1500m
200 to 500 ft
< 800m
< 200 ft
Symbols :   Thunderstorms  Fog  Heavy snow  Heavy precipitations  Wind > 20 kt
SIGMETs :     Misc.  Thunderstorms  Icing  Turbulence  Mountain Waves  Volcanic Ashes







- Airport Elevation : 37 ft


EHVL - Vlieland Heliport

CURRENT METAR :
  • 241025Z AUTO 09008KT 2700 BR OVC001 14/13 Q1024 RED

EXPIRED METARs :
  • 241009Z AUTO 09008KT 1800 BR OVC000 14/13 Q1024 RED
  • 240959Z AUTO 09008KT 1000 BR OVC000 13/13 Q1024 RED
  • 240955Z AUTO 09007KT 0900 FG NCD 14/13 Q1024 AMB
  • 240945Z AUTO 10007KT 0650 FG NCD 13/13 Q1024 RED
  • 240938Z AUTO 10007KT 0500 FG VV000 14/13 Q1024 RED
  • 240929Z AUTO 10007KT 0800 FG VV000 14/13 Q1024 AMB
  • 240906Z AUTO 12006KT 0250 FG VV000 13/13 Q1024 RED
  • 240855Z AUTO 12007KT 2300 BR BKN000 BKN002 14/13 Q1024 RED
  • 240848Z AUTO 12006KT 4100 BR SCT001 BKN002 14/13 Q1024 RED
  • 240844Z AUTO 12006KT 4300 BR FEW001 SCT003 15/13 Q1024 YLO
  • 240832Z AUTO 12005KT 4400 BR SCT002 14/13 Q1024 AMB
  • 240825Z AUTO 11006KT 4900 BR SCT003 14/13 Q1024 YLO
  • 240818Z AUTO 11007KT 5000 BR SCT003 14/13 Q1023 YLO
  • 240808Z AUTO 10006KT 4500 BR BKN003 14/13 Q1023 YLO
  • 240803Z AUTO 09006KT 6000 BR BKN003 BKN004 14/13 Q1023 YLO
  • 240755Z AUTO 09006KT 6000 BR FEW003 14/13 Q1023 WHT
  • 240725Z AUTO 09007KT 7000 BR NCD 13/13 Q1023 WHT

Expired Forecast.
No reported NOTAMs for that airfield.



MET'MAP, your aeronautical weather chart ! - Copyright ORBIFLY December 2007 - Disclaimer

ORBIFLY MET'MAP TEAM :

Programming & Development : Alexandra Zaïnal
Concept & Development : Baudouin d'Aumeries
Co-Development & Prog : Marc-Olivier Méhu
Technical & hardware support : Manuel Goepfert

Contact : metmap@orbifly.com




SOURCES & CREDITS :

   NOAA